Latest Weather Observations for Perisher Valley

IDN60901

Issued at 5:01 am EDT Thursday 2 March 2017 (issued every 10 minutes, with the page automatically refreshed every 10 minutes)

About weather observations | Map of Canberra area stations | Latest observations for Canberra area | Other Formats
Station Details ID: 071075 Name: PERISHER VALLEY AWS Lat: -36.41 Lon: 148.41 Height: 1738.0 m
Data from the previous 72 hours. | See also: Recent months at Perisher Valley
Date/Time
EDT
Temp
°C
App
Temp
°C
Dew
Point
°C
Rel
Hum
%
Delta-T
°C
Wind Press
QNH
hPa
Press
MSL
hPa
Rain since
9am
mm
Dir  Spd
km/h
Gust
km/h
Spd
kts
Gust
kts
02/04:30am 5.5 3.8 1.6 76 1.7 CALM 0 2 0 1 - - 0.0
02/04:00am 5.4 3.8 2.2 80 1.4 CALM 0 4 0 2 - - 0.0
02/03:30am 5.5 3.2 2.8 83 1.2 SW 4 7 2 4 - - 0.0
02/03:00am 5.7 3.8 2.9 82 1.3 WSW 2 7 1 4 - - 0.0
02/02:30am 5.8 3.7 3.8 87 0.9 SW 4 7 2 4 - - 0.0
02/02:00am 6.3 4.1 3.6 83 1.3 SW 4 6 2 3 - - 0.0
02/01:30am 7.1 5.7 5.4 89 0.8 SSW 2 7 1 4 - - 0.0
02/01:00am 7.9 6.5 7.3 96 0.3 WSW 4 7 2 4 - - 0.0
02/12:30am 8.1 7.5 7.5 96 0.3 CALM 0 2 0 1 - - 0.0
02/12:00am 8.2 7.6 7.6 96 0.3 CALM 0 0 0 0 - - 0.0
 
Date/Time
EDT
Temp
°C
App
Temp
°C
Dew
Point
°C
Rel
Hum
%
Delta-T
°C
Wind Press
QNH
hPa
Press
MSL
hPa
Rain since
9am
mm
Dir  Spd
km/h
Gust
km/h
Spd
kts
Gust
kts
01/11:30pm 8.6 7.7 7.8 95 0.4 SW 2 4 1 2 - - 0.0
01/11:00pm 8.6 7.6 7.4 92 0.6 SW 2 2 1 1 - - 0.0
01/10:30pm 9.8 9.0 8.2 90 0.9 WSW 2 4 1 2 - - 0.0
01/10:00pm 10.5 9.8 8.4 87 1.1 NNE 2 4 1 2 - - 0.0
01/09:30pm 12.0 11.5 9.2 83 1.5 NNW 2 4 1 2 - - 0.0
01/09:00pm 12.2 11.8 9.6 84 1.4 SW 2 4 1 2 - - 0.0
01/08:30pm 12.6 11.6 8.9 78 2.0 NE 4 4 2 2 - - 0.0
01/08:00pm 14.1 13.1 10.3 78 2.2 NE 6 13 3 7 - - 0.0
01/07:30pm 15.0 13.0 10.2 73 2.7 NE 11 15 6 8 - - 0.0
01/07:00pm 16.1 13.6 9.8 66 3.6 E 13 19 7 10 - - 0.0
01/06:30pm 17.6 14.0 9.8 60 4.5 E 19 32 10 17 - - 0.0
01/06:00pm 18.4 15.6 2.3 34 8.1 ESE 6 9 3 5 - - 0.0
01/05:30pm 19.5 16.6 2.8 33 8.5 ENE 7 13 4 7 - - 0.0
01/05:00pm 18.9 15.4 1.4 31 8.7 ENE 9 19 5 10 - - 0.0
01/04:30pm 19.4 16.2 0.9 29 9.1 ESE 7 17 4 9 - - 0.0
01/04:00pm 21.0 18.2 1.8 28 9.7 E 6 19 3 10 - - 0.0
01/03:30pm 21.0 18.0 1.8 28 9.7 ESE 7 15 4 8 - - 0.0
01/03:00pm 20.1 17.3 2.0 30 9.1 SE 6 17 3 9 - - 0.0
01/02:30pm 20.2 16.8 2.1 30 9.2 E 9 17 5 9 - - 0.0
01/02:00pm 19.6 15.2 0.6 28 9.3 E 13 22 7 12 - - 0.0
01/01:30pm 20.0 16.4 0.5 27 9.6 ESE 9 19 5 10 - - 0.0
01/01:00pm 19.6 16.8 5.3 39 7.7 ESE 9 17 5 9 - - 0.0
01/12:30pm 18.8 15.3 3.4 36 7.9 ESE 11 19 6 10 - - 0.0
01/12:00pm 19.2 15.5 2.1 32 8.6 E 11 20 6 11 - - 0.0
01/11:30am 18.9 16.0 4.7 39 7.5 E 9 15 5 8 - - 0.0
01/11:00am 19.1 16.6 6.6 44 6.8 ENE 9 17 5 9 - - 0.0
01/10:30am 17.5 15.3 5.1 44 6.5 NNE 6 11 3 6 - - 0.0
01/10:00am 16.5 14.6 6.9 53 5.2 N 6 13 3 7 - - 0.0
01/09:30am 15.9 14.1 7.1 56 4.8 NNE 6 11 3 6 - - 0.0
01/09:00am 15.2 13.3 7.7 61 4.1 NE 7 13 4 7 - - 0.0
01/08:30am 12.6 12.5 9.6 82 1.7 CALM 0 2 0 1 - - 0.0
01/08:00am 9.3 8.9 8.1 92 0.6 CALM 0 0 0 0 - - 0.0
01/07:30am 6.7 5.3 5.7 93 0.5 WSW 2 6 1 3 - - 0.0
01/07:00am 5.3 4.1 4.4 94 0.4 CALM 0 4 0 2 - - 0.0
01/06:30am 5.0 2.9 3.8 92 0.6 SW 4 7 2 4 - - 0.0
01/06:00am 5.8 4.3 4.9 94 0.4 WSW 2 4 1 2 - - 0.0
01/05:30am 6.2 4.4 5.3 94 0.4 SW 4 6 2 3 - - 0.0
01/05:00am 6.2 4.8 5.6 96 0.3 WSW 2 6 1 3 - - 0.0
01/04:30am 6.2 5.2 5.5 95 0.3 CALM 0 4 0 2 - - 0.0
01/04:00am 6.1 4.2 4.9 92 0.6 SW 4 7 2 4 - - 0.0
01/03:30am 6.4 4.9 5.2 92 0.6 SW 2 7 1 4 - - 0.0
01/03:00am 6.5 5.1 5.5 93 0.5 SW 2 6 1 3 - - 0.0
01/02:30am 6.9 5.9 5.8 93 0.5 CALM 0 4 0 2 - - 0.0
01/02:00am 7.0 5.7 6.1 94 0.5 SW 2 7 1 4 - - 0.0
01/01:30am 7.2 6.4 6.5 95 0.4 CALM 0 2 0 1 - - 0.0
01/01:00am 7.5 6.8 6.9 96 0.3 CALM 0 2 0 1 - - 0.0
01/12:30am 7.6 6.9 7.0 96 0.3 CALM 0 2 0 1 - - 0.0
01/12:00am 7.6 6.5 7.0 96 0.3 SW 2 6 1 3 - - 0.0
 
Date/Time
EDT
Temp
°C
App
Temp
°C
Dew
Point
°C
Rel
Hum
%
Delta-T
°C
Wind Press
QNH
hPa
Press
MSL
hPa
Rain since
9am
mm
Dir  Spd
km/h
Gust
km/h
Spd
kts
Gust
kts
28/11:30pm 7.8 6.8 7.2 96 0.3 SW 2 4 1 2 - - 0.0
28/11:00pm 8.4 7.8 7.3 93 0.6 CALM 0 2 0 1 - - 0.0
28/10:30pm 8.7 8.1 7.3 91 0.7 CALM 0 4 0 2 - - 0.0
28/10:00pm 9.2 8.2 7.5 89 0.9 WNW 2 4 1 2 - - 0.0
28/09:30pm 10.6 10.1 8.0 84 1.4 CALM 0 2 0 1 - - 0.0
28/09:00pm 11.0 10.4 7.5 79 1.9 CALM 0 2 0 1 - - 0.0
28/08:30pm 12.8 11.2 8.1 73 2.6 NNE 6 9 3 5 - - 0.0
28/08:00pm 14.1 12.1 8.7 70 3.0 NE 9 13 5 7 - - 0.0
28/07:30pm 14.8 12.8 8.5 66 3.5 NE 9 19 5 10 - - 0.0
28/07:00pm 16.2 13.7 8.2 59 4.4 NE 11 15 6 8 - - 0.0
28/06:30pm 17.6 14.9 7.4 51 5.6 ENE 11 17 6 9 - - 0.0
28/06:00pm 18.4 16.0 7.2 48 6.2 ENE 9 17 5 9 - - 0.0
28/05:30pm 17.3 14.0 6.5 49 5.8 E 13 17 7 9 - - 0.0
28/05:00pm 19.6 17.7 6.7 43 7.1 ENE 6 13 3 7 - - 0.0
28/04:30pm 19.0 15.7 4.7 39 7.5 E 11 19 6 10 - - 0.0
28/04:00pm 20.5 18.1 4.5 35 8.5 S 6 17 3 9 - - 0.0
28/03:30pm 19.8 16.0 3.9 35 8.3 E 13 22 7 12 - - 0.0
28/03:00pm 19.7 17.0 3.8 35 8.3 E 7 19 4 10 - - 0.0
28/02:30pm 19.4 16.1 2.3 32 8.6 ESE 9 24 5 13 - - 0.0
28/02:00pm 19.4 15.8 0.9 29 9.1 ESE 9 17 5 9 - - 0.0
28/01:30pm 19.2 15.8 1.7 31 8.7 SE 9 17 5 9 - - 0.0
28/01:00pm 19.0 15.3 2.4 33 8.4 ENE 11 19 6 10 - - 0.0
28/12:30pm 19.1 15.9 3.3 35 8.1 ENE 9 17 5 9 - - 0.0
28/12:00pm 18.9 15.4 3.5 36 7.9 ESE 11 17 6 9 - - 0.0
28/11:30am 19.2 16.0 3.0 34 8.3 E 9 15 5 8 - - 0.0
28/11:00am 18.1 15.1 2.0 34 8.0 NE 7 13 4 7 - - 0.0
28/10:30am 17.7 14.7 0.8 32 8.2 E 6 13 3 7 - - 0.0
28/10:00am 17.3 13.9 -0.9 29 8.5 E 7 13 4 7 - - 0.0
28/09:30am 16.0 13.8 3.4 43 6.4 SE 4 9 2 5 - - 0.0
28/09:00am 14.5 13.4 6.8 60 4.1 ESE 2 4 1 2 - - 0.0
28/08:30am 11.5 11.2 8.5 82 1.6 CALM 0 2 0 1 - - 0.0
28/08:00am 6.7 5.2 5.0 89 0.8 SW 2 4 1 2 - - 0.0
28/07:30am 4.0 1.9 2.0 87 0.9 NW 2 4 1 2 - - 0.0
28/07:00am 3.1 1.0 1.9 92 0.5 SW 2 6 1 3 - - 0.0
28/06:30am 3.1 0.6 1.5 89 0.7 SW 4 7 2 4 - - 0.0
28/06:00am 2.9 0.5 -0.4 79 1.4 WSW 2 6 1 3 - - 0.0
28/05:30am 3.4 1.1 0.5 81 1.2 SW 2 6 1 3 - - 0.0
28/05:00am 3.3 1.3 0.2 80 1.3 CALM 0 2 0 1 - - 0.0
28/04:30am 3.8 1.7 1.4 84 1.1 SW 2 6 1 3 - - 0.0
28/04:00am 3.8 2.1 1.8 87 0.9 CALM 0 2 0 1 - - 0.0
28/03:30am 3.9 2.2 1.8 86 0.9 CALM 0 0 0 0 - - 0.0
28/03:00am 4.1 2.4 2.1 87 0.9 CALM 0 4 0 2 - - 0.0
28/02:30am 4.6 2.3 2.8 88 0.8 SW 4 6 2 3 - - 0.0
28/02:00am 4.5 3.0 2.8 89 0.8 CALM 0 0 0 0 - - 0.0
28/01:30am 5.0 3.4 4.3 95 0.3 WSW 2 4 1 2 - - 0.0
28/01:00am 4.5 2.8 3.8 95 0.3 SW 2 6 1 3 - - 0.0
28/12:30am 5.1 3.9 4.5 96 0.3 CALM 0 2 0 1 - - 0.0
28/12:00am 5.6 4.1 5.0 96 0.3 SW 2 4 1 2 - - 0.0
 
Date/Time
EDT
Temp
°C
App
Temp
°C
Dew
Point
°C
Rel
Hum
%
Delta-T
°C
Wind Press
QNH
hPa
Press
MSL
hPa
Rain since
9am
mm
Dir  Spd
km/h
Gust
km/h
Spd
kts
Gust
kts
27/11:30pm 5.8 4.7 5.1 95 0.3 CALM 0 4 0 2 - - 0.0
27/11:00pm 5.8 4.6 4.8 93 0.5 CALM 0 2 0 1 - - 0.0
27/10:30pm 5.7 4.4 4.0 89 0.8 CALM 0 2 0 1 - - 0.0
27/10:00pm 7.3 6.0 5.9 91 0.7 SW 2 4 1 2 - - 0.0
27/09:30pm 7.6 6.2 5.7 88 0.9 SW 2 4 1 2 - - 0.0
27/09:00pm 8.5 6.9 6.3 86 1.1 SW 4 4 2 2 - - 0.0
27/08:30pm 10.1 9.3 6.4 78 1.9 CALM 0 2 0 1 - - 0.0
27/08:00pm 11.5 10.4 7.0 74 2.4 ESE 2 6 1 3 - - 0.0
27/07:30pm 13.2 11.2 7.0 66 3.3 NE 7 9 4 5 - - 0.0
27/07:00pm 15.3 12.8 4.7 49 5.5 E 7 11 4 6 - - 0.0
27/06:30pm 16.0 13.0 5.9 51 5.4 E 11 15 6 8 - - 0.0
27/06:00pm 16.9 14.6 5.8 48 5.9 ENE 7 17 4 9 - - 0.0
27/05:30pm 17.1 14.5 6.3 49 5.8 ESE 9 17 5 9 - - 0.0
27/05:00pm 17.7 14.7 5.9 46 6.3 ENE 11 20 6 11 - - 0.0
27/04:30pm 17.8 14.8 6.0 46 6.3 E 11 22 6 12 - - 0.0
27/04:00pm 18.1 16.2 6.6 47 6.3 SSE 6 19 3 10 - - 0.0
27/03:30pm 17.6 15.2 6.8 49 5.9 SE 9 19 5 10 - - 0.0
27/03:00pm 17.6 14.7 6.5 48 6.0 E 11 19 6 10 - - 0.0
27/02:30pm 17.3 15.0 7.4 52 5.4 ESE 9 20 5 11 - - 0.0
27/02:00pm 17.3 14.2 7.4 52 5.4 E 13 24 7 13 - - 0.0
27/01:30pm 17.3 15.3 10.0 62 4.2 ESE 11 19 6 10 - - 0.0
27/01:00pm 17.0 15.6 9.4 61 4.3 SE 7 19 4 10 - - 0.0
27/12:30pm 16.6 15.3 10.0 65 3.8 SE 7 17 4 9 - - 0.0
27/12:00pm 15.7 13.9 8.0 60 4.2 NE 7 13 4 7 - - 0.0
27/11:30am 16.0 15.0 9.0 63 3.9 ENE 4 11 2 6 - - 0.0
27/11:00am 14.4 12.4 8.6 68 3.2 NE 9 17 5 9 - - 0.0
27/10:30am 14.2 11.6 9.4 73 2.7 NE 13 19 7 10 - - 0.0
27/10:00am 13.2 11.6 10.2 82 1.7 ENE 9 17 5 9 - - 0.0
27/09:30am 10.8 9.1 10.0 95 0.4 NNE 9 17 5 9 - - 0.0
27/09:00am 9.5 7.3 9.5 100 0.0 NNE 11 20 6 11 - - 0.0
27/08:30am 9.1 7.6 9.1 100 0.0 NNE 7 17 4 9 - - 0.0
27/08:00am 8.4 6.7 8.4 100 0.0 NNE 7 17 4 9 - - 0.0
27/07:30am 7.6 5.9 7.6 100 0.0 ENE 6 9 3 5 - - 0.0
27/07:00am 6.5 4.5 6.4 99 0.1 NNE 6 11 3 6 - - 0.0
27/06:30am 2.7 0.3 2.4 98 0.1 NE 4 7 2 4 - - 0.0
27/06:00am 0.6 -1.4 -0.1 95 0.3 CALM 0 2 0 1 - - 0.0
27/05:30am -0.4 -2.6 -1.8 90 0.5 CALM 0 2 0 1 - - 0.0

Latest Capital City Observations: Canberra | Sydney | Melbourne | Brisbane | Adelaide | Perth | Hobart | Darwin

Other Formats:

Comma delimited format used in spreadsheet applications
http://www.bom.gov.au/fwo/IDN60903/IDN60903.94915.axf

JavaScript Object Notation format (JSON) in row-major order
http://www.bom.gov.au/fwo/IDN60903/IDN60903.94915.json